sensor_id;sensor_type;location;lat;lon;timestamp;pressure;altitude;pressure_sealevel;temperature;humidity
37904;BME280;23738;50.422;18.758;2022-08-19T00:01:21;97930.53;;;23.37;62.05
37904;BME280;23738;50.422;18.758;2022-08-19T00:03:48;97931.37;;;23.35;62.06
37904;BME280;23738;50.422;18.758;2022-08-19T00:06:14;97928.67;;;23.35;62.10
37904;BME280;23738;50.422;18.758;2022-08-19T00:08:41;97927.33;;;23.35;62.05
37904;BME280;23738;50.422;18.758;2022-08-19T00:11:07;97925.72;;;23.34;62.04
37904;BME280;23738;50.422;18.758;2022-08-19T00:13:34;97930.92;;;23.31;62.10
37904;BME280;23738;50.422;18.758;2022-08-19T00:16:00;97932.30;;;23.28;62.17
37904;BME280;23738;50.422;18.758;2022-08-19T00:18:27;97928.04;;;23.24;62.24
37904;BME280;23738;50.422;18.758;2022-08-19T00:20:53;97928.33;;;23.23;62.34
37904;BME280;23738;50.422;18.758;2022-08-19T00:23:19;97931.02;;;23.23;62.69
37904;BME280;23738;50.422;18.758;2022-08-19T00:25:48;97924.80;;;23.25;62.90
37904;BME280;23738;50.422;18.758;2022-08-19T00:28:13;97921.05;;;23.23;62.78
37904;BME280;23738;50.422;18.758;2022-08-19T00:30:39;97913.28;;;23.22;62.73
37904;BME280;23738;50.422;18.758;2022-08-19T00:33:06;97918.67;;;23.22;62.69
37904;BME280;23738;50.422;18.758;2022-08-19T00:35:33;97907.67;;;23.18;62.73
37904;BME280;23738;50.422;18.758;2022-08-19T00:37:59;97910.95;;;23.15;62.80
37904;BME280;23738;50.422;18.758;2022-08-19T00:40:25;97908.06;;;23.12;62.95
37904;BME280;23738;50.422;18.758;2022-08-19T00:42:51;97906.97;;;23.13;63.29
37904;BME280;23738;50.422;18.758;2022-08-19T00:45:22;97908.61;;;23.11;63.47
37904;BME280;23738;50.422;18.758;2022-08-19T00:47:50;97902.42;;;23.11;63.39
37904;BME280;23738;50.422;18.758;2022-08-19T00:50:20;97894.34;;;23.11;63.37
37904;BME280;23738;50.422;18.758;2022-08-19T00:52:48;97888.18;;;23.08;63.40
37904;BME280;23738;50.422;18.758;2022-08-19T00:55:24;97897.13;;;23.06;63.48
37904;BME280;23738;50.422;18.758;2022-08-19T00:57:54;97890.98;;;23.03;63.42
37904;BME280;23738;50.422;18.758;2022-08-19T01:00:24;97895.05;;;23.00;63.64
37904;BME280;23738;50.422;18.758;2022-08-19T01:02:52;97896.65;;;23.01;63.96
37904;BME280;23738;50.422;18.758;2022-08-19T01:05:21;97890.47;;;23.01;64.12
37904;BME280;23738;50.422;18.758;2022-08-19T01:07:50;97888.05;;;22.99;64.09
37904;BME280;23738;50.422;18.758;2022-08-19T01:10:19;97895.05;;;23.00;64.06
37904;BME280;23738;50.422;18.758;2022-08-19T01:12:48;97883.25;;;22.99;64.13
37904;BME280;23738;50.422;18.758;2022-08-19T01:15:19;97882.48;;;22.96;63.98
37904;BME280;23738;50.422;18.758;2022-08-19T01:17:45;97880.11;;;22.92;63.96
37904;BME280;23738;50.422;18.758;2022-08-19T01:20:15;97889.53;;;22.92;64.15
37904;BME280;23738;50.422;18.758;2022-08-19T01:25:19;97876.20;;;22.84;64.55
37904;BME280;23738;50.422;18.758;2022-08-19T01:27:49;97881.80;;;22.87;64.64
37904;BME280;23738;50.422;18.758;2022-08-19T01:30:20;97872.41;;;22.85;64.66
37904;BME280;23738;50.422;18.758;2022-08-19T01:32:51;97868.44;;;22.82;64.74
37904;BME280;23738;50.422;18.758;2022-08-19T01:35:17;97867.66;;;22.79;64.62
37904;BME280;23738;50.422;18.758;2022-08-19T01:37:52;97873.08;;;22.77;64.74
37904;BME280;23738;50.422;18.758;2022-08-19T01:40:22;97871.19;;;22.77;64.99
37904;BME280;23738;50.422;18.758;2022-08-19T01:42:52;97878.18;;;22.78;65.13
37904;BME280;23738;50.422;18.758;2022-08-19T01:45:19;97873.34;;;22.78;65.06
37904;BME280;23738;50.422;18.758;2022-08-19T01:47:47;97877.66;;;22.76;65.25
37904;BME280;23738;50.422;18.758;2022-08-19T01:50:14;97869.65;;;22.71;65.19
37904;BME280;23738;50.422;18.758;2022-08-19T01:52:42;97870.20;;;22.71;65.24
37904;BME280;23738;50.422;18.758;2022-08-19T01:55:12;97870.48;;;22.69;65.42
37904;BME280;23738;50.422;18.758;2022-08-19T01:57:41;97873.72;;;22.69;65.65
37904;BME280;23738;50.422;18.758;2022-08-19T02:00:12;97865.36;;;22.70;65.63
37904;BME280;23738;50.422;18.758;2022-08-19T02:02:41;97865.61;;;22.71;65.57
37904;BME280;23738;50.422;18.758;2022-08-19T02:05:08;97863.20;;;22.70;65.74
37904;BME280;23738;50.422;18.758;2022-08-19T02:07:35;97858.46;;;22.64;65.76
37904;BME280;23738;50.422;18.758;2022-08-19T02:10:07;97860.67;;;22.60;65.70
37904;BME280;23738;50.422;18.758;2022-08-19T02:12:35;97861.21;;;22.59;65.82
37904;BME280;23738;50.422;18.758;2022-08-19T02:15:03;97861.53;;;22.58;66.24
37904;BME280;23738;50.422;18.758;2022-08-19T02:17:29;97858.52;;;22.59;66.16
37904;BME280;23738;50.422;18.758;2022-08-19T02:19:56;97856.09;;;22.60;66.11
37904;BME280;23738;50.422;18.758;2022-08-19T02:22:23;97862.02;;;22.60;66.02
37904;BME280;23738;50.422;18.758;2022-08-19T02:24:52;97861.02;;;22.56;66.04
37904;BME280;23738;50.422;18.758;2022-08-19T02:27:18;97856.72;;;22.55;66.05
37904;BME280;23738;50.422;18.758;2022-08-19T02:29:46;97853.52;;;22.52;66.08
37904;BME280;23738;50.422;18.758;2022-08-19T02:32:14;97852.45;;;22.51;66.28
37904;BME280;23738;50.422;18.758;2022-08-19T02:34:40;97852.23;;;22.50;66.39
37904;BME280;23738;50.422;18.758;2022-08-19T02:37:07;97849.28;;;22.49;66.39
37904;BME280;23738;50.422;18.758;2022-08-19T02:39:34;97853.09;;;22.45;66.41
37904;BME280;23738;50.422;18.758;2022-08-19T02:42:00;97852.09;;;22.41;66.58
37904;BME280;23738;50.422;18.758;2022-08-19T02:44:27;97850.77;;;22.39;66.37
37904;BME280;23738;50.422;18.758;2022-08-19T02:46:54;97854.00;;;22.38;66.54
37904;BME280;23738;50.422;18.758;2022-08-19T02:49:20;97848.42;;;22.35;66.73
37904;BME280;23738;50.422;18.758;2022-08-19T02:51:46;97852.95;;;22.37;66.99
37904;BME280;23738;50.422;18.758;2022-08-19T02:54:13;97851.34;;;22.36;66.86
37904;BME280;23738;50.422;18.758;2022-08-19T02:56:41;97846.28;;;22.34;66.81
37904;BME280;23738;50.422;18.758;2022-08-19T02:59:08;97850.89;;;22.31;66.79
37904;BME280;23738;50.422;18.758;2022-08-19T03:01:35;97849.85;;;22.27;66.91
37904;BME280;23738;50.422;18.758;2022-08-19T03:04:04;97856.89;;;22.26;67.17
37904;BME280;23738;50.422;18.758;2022-08-19T03:06:34;97853.12;;;22.27;67.21
37904;BME280;23738;50.422;18.758;2022-08-19T03:09:01;97850.42;;;22.27;67.15
37904;BME280;23738;50.422;18.758;2022-08-19T03:11:30;97848.83;;;22.26;67.17
37904;BME280;23738;50.422;18.758;2022-08-19T03:13:58;97849.39;;;22.23;67.10
37904;BME280;23738;50.422;18.758;2022-08-19T03:16:27;97842.16;;;22.21;67.18
37904;BME280;23738;50.422;18.758;2022-08-19T03:18:56;97845.92;;;22.20;67.32
37904;BME280;23738;50.422;18.758;2022-08-19T03:21:27;97846.45;;;22.22;67.43
37904;BME280;23738;50.422;18.758;2022-08-19T03:23:57;97848.33;;;22.21;67.41
37904;BME280;23738;50.422;18.758;2022-08-19T03:26:24;97849.48;;;22.18;67.34
37904;BME280;23738;50.422;18.758;2022-08-19T03:28:51;97846.81;;;22.15;67.46
37904;BME280;23738;50.422;18.758;2022-08-19T03:31:19;97846.58;;;22.11;67.40
37904;BME280;23738;50.422;18.758;2022-08-19T03:33:50;97852.76;;;22.12;67.63
37904;BME280;23738;50.422;18.758;2022-08-19T03:36:20;97864.84;;;22.14;67.71
37904;BME280;23738;50.422;18.758;2022-08-19T03:38:53;97869.70;;;22.12;67.69
37904;BME280;23738;50.422;18.758;2022-08-19T03:41:27;97865.95;;;22.11;67.66
37904;BME280;23738;50.422;18.758;2022-08-19T03:43:54;97865.75;;;22.07;67.62
37904;BME280;23738;50.422;18.758;2022-08-19T03:46:23;97875.16;;;22.07;67.74
37904;BME280;23738;50.422;18.758;2022-08-19T03:48:55;97869.78;;;22.07;68.02
37904;BME280;23738;50.422;18.758;2022-08-19T03:51:28;97871.92;;;22.08;67.92
37904;BME280;23738;50.422;18.758;2022-08-19T03:53:59;97878.91;;;22.09;67.96
37904;BME280;23738;50.422;18.758;2022-08-19T03:56:27;97871.67;;;22.07;67.85
37904;BME280;23738;50.422;18.758;2022-08-19T03:58:55;97876.78;;;22.06;67.79
37904;BME280;23738;50.422;18.758;2022-08-19T04:01:25;97875.18;;;22.05;67.85
37904;BME280;23738;50.422;18.758;2022-08-19T04:03:54;97888.89;;;22.06;68.11
37904;BME280;23738;50.422;18.758;2022-08-19T04:06:25;97888.81;;;22.11;68.11
37904;BME280;23738;50.422;18.758;2022-08-19T04:08:54;97896.05;;;22.13;68.02
37904;BME280;23738;50.422;18.758;2022-08-19T04:11:26;97900.63;;;22.12;68.01
37904;BME280;23738;50.422;18.758;2022-08-19T04:13:54;97901.72;;;22.11;68.00
37904;BME280;23738;50.422;18.758;2022-08-19T04:16:25;97903.38;;;22.10;67.88
37904;BME280;23738;50.422;18.758;2022-08-19T04:18:54;97904.45;;;22.09;68.03
37904;BME280;23738;50.422;18.758;2022-08-19T04:21:24;97899.55;;;22.13;68.20
37904;BME280;23738;50.422;18.758;2022-08-19T04:23:52;97901.67;;;22.17;68.22
37904;BME280;23738;50.422;18.758;2022-08-19T04:26:26;97914.78;;;22.21;68.13
37904;BME280;23738;50.422;18.758;2022-08-19T04:29:00;97912.87;;;22.24;68.09
37904;BME280;23738;50.422;18.758;2022-08-19T04:31:29;97916.02;;;22.28;68.01
37904;BME280;23738;50.422;18.758;2022-08-19T04:33:58;97917.86;;;22.33;67.87
37904;BME280;23738;50.422;18.758;2022-08-19T04:36:28;97919.10;;;22.40;68.00
37904;BME280;23738;50.422;18.758;2022-08-19T04:38:58;97917.36;;;22.49;68.14
37904;BME280;23738;50.422;18.758;2022-08-19T04:41:26;97922.83;;;22.61;68.15
37904;BME280;23738;50.422;18.758;2022-08-19T04:44:11;97926.21;;;22.69;67.93
37904;BME280;23738;50.422;18.758;2022-08-19T04:46:38;97928.56;;;22.75;67.79
37904;BME280;23738;50.422;18.758;2022-08-19T04:49:06;97933.28;;;22.83;67.86
37904;BME280;23738;50.422;18.758;2022-08-19T04:51:34;97926.49;;;22.88;67.88
37904;BME280;23738;50.422;18.758;2022-08-19T04:54:03;97929.35;;;22.95;67.96
37904;BME280;23738;50.422;18.758;2022-08-19T04:56:29;97928.69;;;23.03;67.98
37904;BME280;23738;50.422;18.758;2022-08-19T04:58:56;97932.05;;;23.11;67.72
37904;BME280;23738;50.422;18.758;2022-08-19T05:01:26;97930.06;;;23.16;67.68
37904;BME280;23738;50.422;18.758;2022-08-19T05:03:54;97928.91;;;23.22;67.70
37904;BME280;23738;50.422;18.758;2022-08-19T05:06:22;97923.45;;;23.25;67.52
37904;BME280;23738;50.422;18.758;2022-08-19T05:08:48;97914.53;;;23.27;67.31
37904;BME280;23738;50.422;18.758;2022-08-19T05:11:21;97921.78;;;23.29;67.22
37904;BME280;23738;50.422;18.758;2022-08-19T05:13:49;97922.27;;;23.31;67.42
37904;BME280;23738;50.422;18.758;2022-08-19T05:16:16;97925.33;;;23.41;67.64
37904;BME280;23738;50.422;18.758;2022-08-19T05:18:44;97921.44;;;23.49;67.39
37904;BME280;23738;50.422;18.758;2022-08-19T05:21:30;97924.53;;;23.56;67.06
37904;BME280;23738;50.422;18.758;2022-08-19T05:24:15;97918.75;;;23.63;66.79
37904;BME280;23738;50.422;18.758;2022-08-19T05:26:44;97920.52;;;23.70;66.91
37904;BME280;23738;50.422;18.758;2022-08-19T05:29:14;97925.81;;;23.75;66.91
37904;BME280;23738;50.422;18.758;2022-08-19T05:31:42;97931.97;;;23.78;66.86
37904;BME280;23738;50.422;18.758;2022-08-19T05:34:09;97935.09;;;23.83;66.87
37904;BME280;23738;50.422;18.758;2022-08-19T05:36:41;97934.40;;;23.91;66.83
37904;BME280;23738;50.422;18.758;2022-08-19T05:39:10;97938.66;;;23.94;66.48
37904;BME280;23738;50.422;18.758;2022-08-19T05:41:48;97943.98;;;23.97;66.15
37904;BME280;23738;50.422;18.758;2022-08-19T05:44:11;97940.70;;;24.00;66.03
37904;BME280;23738;50.422;18.758;2022-08-19T05:46:40;97942.84;;;24.00;65.86
37904;BME280;23738;50.422;18.758;2022-08-19T05:49:08;97951.41;;;24.02;65.76
37904;BME280;23738;50.422;18.758;2022-08-19T05:51:35;97947.58;;;24.06;65.71
37904;BME280;23738;50.422;18.758;2022-08-19T05:54:03;97943.20;;;24.10;65.52
37904;BME280;23738;50.422;18.758;2022-08-19T05:56:31;97946.88;;;24.14;65.49
37904;BME280;23738;50.422;18.758;2022-08-19T05:58:58;97941.90;;;24.21;65.57
37904;BME280;23738;50.422;18.758;2022-08-19T06:01:25;97941.69;;;24.31;65.58
37904;BME280;23738;50.422;18.758;2022-08-19T06:03:52;97936.31;;;24.43;65.34
37904;BME280;23738;50.422;18.758;2022-08-19T06:06:19;97936.30;;;24.56;65.13
37904;BME280;23738;50.422;18.758;2022-08-19T06:08:45;97948.90;;;24.72;64.81
37904;BME280;23738;50.422;18.758;2022-08-19T06:11:34;97948.67;;;24.82;64.49
37904;BME280;23738;50.422;18.758;2022-08-19T06:14:05;97939.48;;;24.94;64.31
37904;BME280;23738;50.422;18.758;2022-08-19T06:16:40;97952.27;;;25.02;64.17
37904;BME280;23738;50.422;18.758;2022-08-19T06:19:09;97949.56;;;25.02;64.03
37904;BME280;23738;50.422;18.758;2022-08-19T06:21:39;97957.67;;;25.02;64.04
37904;BME280;23738;50.422;18.758;2022-08-19T06:24:08;97959.81;;;25.03;63.74
37904;BME280;23738;50.422;18.758;2022-08-19T06:26:39;97961.42;;;25.04;63.63
37904;BME280;23738;50.422;18.758;2022-08-19T06:29:07;97955.52;;;25.02;63.62
37904;BME280;23738;50.422;18.758;2022-08-19T06:31:41;97963.20;;;24.97;63.90
37904;BME280;23738;50.422;18.758;2022-08-19T06:34:09;97970.38;;;25.02;64.00
37904;BME280;23738;50.422;18.758;2022-08-19T06:36:38;97974.36;;;25.15;63.95
37904;BME280;23738;50.422;18.758;2022-08-19T06:39:16;97972.77;;;25.37;63.69
37904;BME280;23738;50.422;18.758;2022-08-19T06:41:47;97980.41;;;25.54;63.36
37904;BME280;23738;50.422;18.758;2022-08-19T06:44:16;97970.61;;;25.70;62.96
37904;BME280;23738;50.422;18.758;2022-08-19T06:46:43;97984.27;;;25.84;62.45
37904;BME280;23738;50.422;18.758;2022-08-19T06:49:10;97985.83;;;25.97;62.14
37904;BME280;23738;50.422;18.758;2022-08-19T06:51:38;97988.50;;;26.08;61.87
37904;BME280;23738;50.422;18.758;2022-08-19T06:54:04;97997.55;;;26.23;61.65
37904;BME280;23738;50.422;18.758;2022-08-19T06:56:31;98005.20;;;26.41;61.30
37904;BME280;23738;50.422;18.758;2022-08-19T06:59:04;98002.27;;;26.48;61.36
37904;BME280;23738;50.422;18.758;2022-08-19T07:01:44;98008.98;;;26.68;61.37
37904;BME280;23738;50.422;18.758;2022-08-19T07:04:14;98006.47;;;26.89;61.08
37904;BME280;23738;50.422;18.758;2022-08-19T07:06:43;98011.59;;;27.08;60.72
37904;BME280;23738;50.422;18.758;2022-08-19T07:09:11;98011.10;;;27.23;60.75
37904;BME280;23738;50.422;18.758;2022-08-19T07:11:41;98003.20;;;27.32;59.87
37904;BME280;23738;50.422;18.758;2022-08-19T07:14:08;98016.62;;;27.37;59.36
37904;BME280;23738;50.422;18.758;2022-08-19T07:16:34;98023.30;;;27.40;59.18
37904;BME280;23738;50.422;18.758;2022-08-19T07:19:00;98026.48;;;27.51;59.01
37904;BME280;23738;50.422;18.758;2022-08-19T07:21:27;98028.23;;;27.64;58.83
37904;BME280;23738;50.422;18.758;2022-08-19T07:23:55;98029.63;;;27.78;58.81
37904;BME280;23738;50.422;18.758;2022-08-19T07:26:30;98034.13;;;27.98;58.62
37904;BME280;23738;50.422;18.758;2022-08-19T07:28:58;98039.21;;;28.16;58.07
37904;BME280;23738;50.422;18.758;2022-08-19T07:31:27;98039.46;;;28.32;58.05
37904;BME280;23738;50.422;18.758;2022-08-19T07:33:55;98042.73;;;28.46;57.20
37904;BME280;23738;50.422;18.758;2022-08-19T07:36:24;98049.96;;;28.57;56.37
37904;BME280;23738;50.422;18.758;2022-08-19T07:38:54;98053.40;;;28.66;55.93
37904;BME280;23738;50.422;18.758;2022-08-19T07:41:22;98052.67;;;28.72;55.54
37904;BME280;23738;50.422;18.758;2022-08-19T07:43:50;98052.41;;;28.79;54.83
37904;BME280;23738;50.422;18.758;2022-08-19T07:46:18;98055.66;;;28.93;55.03
37904;BME280;23738;50.422;18.758;2022-08-19T07:48:46;98054.52;;;29.09;54.83
37904;BME280;23738;50.422;18.758;2022-08-19T07:51:14;98051.09;;;29.27;54.26
37904;BME280;23738;50.422;18.758;2022-08-19T07:53:42;98060.17;;;29.31;53.90
37904;BME280;23738;50.422;18.758;2022-08-19T07:56:11;98050.86;;;29.47;53.80
37904;BME280;23738;50.422;18.758;2022-08-19T07:58:42;98061.02;;;29.64;53.40
37904;BME280;23738;50.422;18.758;2022-08-19T08:01:23;98054.70;;;29.79;53.04
37904;BME280;23738;50.422;18.758;2022-08-19T08:03:47;98063.05;;;29.94;52.48
37904;BME280;23738;50.422;18.758;2022-08-19T08:06:32;98053.42;;;30.03;52.12
37904;BME280;23738;50.422;18.758;2022-08-19T08:09:20;98053.89;;;30.11;51.70
37904;BME280;23738;50.422;18.758;2022-08-19T08:11:57;98057.31;;;30.26;52.11
37904;BME280;23738;50.422;18.758;2022-08-19T08:14:26;98052.80;;;30.49;51.62
37904;BME280;23738;50.422;18.758;2022-08-19T08:16:53;98050.09;;;30.61;50.93
37904;BME280;23738;50.422;18.758;2022-08-19T08:19:21;98051.55;;;30.76;51.02
37904;BME280;23738;50.422;18.758;2022-08-19T08:21:51;98051.19;;;30.96;50.57
37904;BME280;23738;50.422;18.758;2022-08-19T08:24:18;98052.41;;;31.17;50.19
37904;BME280;23738;50.422;18.758;2022-08-19T08:26:44;98051.86;;;31.39;49.33
37904;BME280;23738;50.422;18.758;2022-08-19T08:29:11;98050.92;;;31.47;48.85
37904;BME280;23738;50.422;18.758;2022-08-19T08:31:40;98055.13;;;31.51;48.48
37904;BME280;23738;50.422;18.758;2022-08-19T08:34:07;98044.17;;;31.57;47.98
37904;BME280;23738;50.422;18.758;2022-08-19T08:36:39;98044.86;;;31.60;47.64
37904;BME280;23738;50.422;18.758;2022-08-19T08:39:12;98037.91;;;31.69;47.91
37904;BME280;23738;50.422;18.758;2022-08-19T08:42:19;98036.34;;;31.83;47.45
37904;BME280;23738;50.422;18.758;2022-08-19T08:44:49;98043.30;;;31.97;47.44
37904;BME280;23738;50.422;18.758;2022-08-19T08:47:19;98039.77;;;31.96;46.76
37904;BME280;23738;50.422;18.758;2022-08-19T08:49:52;98047.05;;;31.98;46.74
37904;BME280;23738;50.422;18.758;2022-08-19T08:52:26;98043.02;;;32.08;46.11
37904;BME280;23738;50.422;18.758;2022-08-19T08:54:55;98043.66;;;32.11;45.87
37904;BME280;23738;50.422;18.758;2022-08-19T08:57:34;98030.27;;;32.06;46.19
37904;BME280;23738;50.422;18.758;2022-08-19T09:00:05;98027.41;;;31.92;45.91
37904;BME280;23738;50.422;18.758;2022-08-19T09:02:33;98026.80;;;31.77;45.63
37904;BME280;23738;50.422;18.758;2022-08-19T09:04:59;98029.84;;;31.60;45.45
37904;BME280;23738;50.422;18.758;2022-08-19T09:16:05;98041.13;;;31.25;46.11
37904;BME280;23738;50.422;18.758;2022-08-19T09:18:24;98047.20;;;31.12;46.32
37904;BME280;23738;50.422;18.758;2022-08-19T09:20:50;98051.16;;;31.02;46.25
37904;BME280;23738;50.422;18.758;2022-08-19T09:23:16;98045.82;;;31.00;46.21
37904;BME280;23738;50.422;18.758;2022-08-19T09:25:42;98050.94;;;31.01;46.24
37904;BME280;23738;50.422;18.758;2022-08-19T09:28:07;98045.70;;;31.02;46.42
37904;BME280;23738;50.422;18.758;2022-08-19T09:30:39;98046.86;;;31.07;46.81
37904;BME280;23738;50.422;18.758;2022-08-19T09:33:06;98045.00;;;31.05;46.09
37904;BME280;23738;50.422;18.758;2022-08-19T09:35:32;98043.66;;;30.99;45.91
37904;BME280;23738;50.422;18.758;2022-08-19T09:38:00;98046.05;;;31.07;46.28
37904;BME280;23738;50.422;18.758;2022-08-19T09:40:27;98050.13;;;31.19;45.94
37904;BME280;23738;50.422;18.758;2022-08-19T09:42:53;98046.12;;;31.29;45.80
37904;BME280;23738;50.422;18.758;2022-08-19T09:45:21;98048.48;;;31.36;45.57
37904;BME280;23738;50.422;18.758;2022-08-19T09:47:51;98046.52;;;31.43;45.04
37904;BME280;23738;50.422;18.758;2022-08-19T09:50:18;98049.47;;;31.44;45.26
37904;BME280;23738;50.422;18.758;2022-08-19T09:52:44;98048.88;;;31.50;44.70
37904;BME280;23738;50.422;18.758;2022-08-19T09:55:11;98052.73;;;31.49;44.73
37904;BME280;23738;50.422;18.758;2022-08-19T09:57:39;98052.52;;;31.48;44.51
37904;BME280;23738;50.422;18.758;2022-08-19T10:00:07;98062.29;;;31.49;44.57
37904;BME280;23738;50.422;18.758;2022-08-19T10:02:35;98049.44;;;31.50;44.16
37904;BME280;23738;50.422;18.758;2022-08-19T10:05:01;98059.67;;;31.47;43.82
37904;BME280;23738;50.422;18.758;2022-08-19T10:07:45;98053.69;;;31.41;43.82
37904;BME280;23738;50.422;18.758;2022-08-19T10:10:12;98052.58;;;31.36;43.61
37904;BME280;23738;50.422;18.758;2022-08-19T10:12:38;98044.66;;;31.47;43.47
37904;BME280;23738;50.422;18.758;2022-08-19T10:15:05;98052.23;;;31.66;43.53
37904;BME280;23738;50.422;18.758;2022-08-19T10:17:33;98053.53;;;31.78;43.71
37904;BME280;23738;50.422;18.758;2022-08-19T10:20:00;98050.86;;;31.87;43.85
37904;BME280;23738;50.422;18.758;2022-08-19T10:22:28;98046.30;;;31.91;43.41
37904;BME280;23738;50.422;18.758;2022-08-19T10:24:54;98044.32;;;31.98;43.19
37904;BME280;23738;50.422;18.758;2022-08-19T10:27:22;98043.39;;;32.22;42.45
37904;BME280;23738;50.422;18.758;2022-08-19T10:29:48;98048.13;;;32.25;42.28
37904;BME280;23738;50.422;18.758;2022-08-19T10:32:14;98044.92;;;32.29;42.21
37904;BME280;23738;50.422;18.758;2022-08-19T10:34:40;98034.90;;;32.43;42.30
37904;BME280;23738;50.422;18.758;2022-08-19T10:37:06;98044.63;;;32.50;41.56
37904;BME280;23738;50.422;18.758;2022-08-19T10:39:34;98045.17;;;32.55;42.15
37904;BME280;23738;50.422;18.758;2022-08-19T10:42:06;98046.41;;;32.67;42.02
37904;BME280;23738;50.422;18.758;2022-08-19T10:44:33;98039.66;;;32.87;41.58
37904;BME280;23738;50.422;18.758;2022-08-19T10:47:01;98032.61;;;33.05;41.51
37904;BME280;23738;50.422;18.758;2022-08-19T10:49:28;98027.19;;;33.24;41.45
37904;BME280;23738;50.422;18.758;2022-08-19T10:51:55;98032.88;;;33.25;41.33
37904;BME280;23738;50.422;18.758;2022-08-19T10:54:40;98024.23;;;33.23;41.38
37904;BME280;23738;50.422;18.758;2022-08-19T10:57:25;98022.30;;;33.33;40.79
37904;BME280;23738;50.422;18.758;2022-08-19T10:59:53;98026.84;;;33.35;40.81
37904;BME280;23738;50.422;18.758;2022-08-19T11:02:18;98023.44;;;33.42;40.36
37904;BME280;23738;50.422;18.758;2022-08-19T11:04:44;98019.91;;;33.41;40.50
37904;BME280;23738;50.422;18.758;2022-08-19T11:07:10;98008.83;;;33.34;40.40
37904;BME280;23738;50.422;18.758;2022-08-19T11:09:39;98003.27;;;33.21;40.51
37904;BME280;23738;50.422;18.758;2022-08-19T11:12:07;98009.31;;;33.11;40.84
37904;BME280;23738;50.422;18.758;2022-08-19T11:14:35;98016.11;;;33.27;40.87
37904;BME280;23738;50.422;18.758;2022-08-19T11:17:01;98022.92;;;33.46;41.43
37904;BME280;23738;50.422;18.758;2022-08-19T11:19:29;98014.11;;;33.66;41.13
37904;BME280;23738;50.422;18.758;2022-08-19T11:21:55;98014.61;;;33.62;40.69
37904;BME280;23738;50.422;18.758;2022-08-19T11:24:23;98010.68;;;33.50;40.75
37904;BME280;23738;50.422;18.758;2022-08-19T11:26:52;98016.47;;;33.35;40.90
37904;BME280;23738;50.422;18.758;2022-08-19T11:29:21;98018.54;;;33.32;41.24
37904;BME280;23738;50.422;18.758;2022-08-19T11:31:49;98011.39;;;33.47;40.45
37904;BME280;23738;50.422;18.758;2022-08-19T11:34:18;98017.83;;;33.35;39.98
37904;BME280;23738;50.422;18.758;2022-08-19T11:36:46;98015.31;;;33.36;40.37
37904;BME280;23738;50.422;18.758;2022-08-19T11:39:15;98011.39;;;33.47;40.27
37904;BME280;23738;50.422;18.758;2022-08-19T11:41:43;98008.08;;;33.47;40.05
37904;BME280;23738;50.422;18.758;2022-08-19T11:44:08;98013.78;;;33.38;40.04
37904;BME280;23738;50.422;18.758;2022-08-19T11:46:36;98007.30;;;33.37;40.00
37904;BME280;23738;50.422;18.758;2022-08-19T11:49:04;98014.79;;;33.30;39.96
37904;BME280;23738;50.422;18.758;2022-08-19T11:51:33;98015.09;;;33.25;39.96
37904;BME280;23738;50.422;18.758;2022-08-19T11:53:59;98020.17;;;33.17;40.15
37904;BME280;23738;50.422;18.758;2022-08-19T11:56:26;98013.90;;;33.07;39.88
37904;BME280;23738;50.422;18.758;2022-08-19T11:58:53;98012.73;;;32.98;39.71
37904;BME280;23738;50.422;18.758;2022-08-19T12:01:23;98011.09;;;32.94;39.75
37904;BME280;23738;50.422;18.758;2022-08-19T12:03:53;98002.67;;;32.93;39.86
37904;BME280;23738;50.422;18.758;2022-08-19T12:06:26;97999.34;;;32.84;39.81
37904;BME280;23738;50.422;18.758;2022-08-19T12:08:55;98000.78;;;32.78;39.93
37904;BME280;23738;50.422;18.758;2022-08-19T12:11:22;97994.72;;;32.68;40.13
37904;BME280;23738;50.422;18.758;2022-08-19T12:13:49;97999.66;;;32.63;40.46
37904;BME280;23738;50.422;18.758;2022-08-19T12:16:18;97998.19;;;32.59;40.61
37904;BME280;23738;50.422;18.758;2022-08-19T12:18:46;97999.56;;;32.59;40.98
37904;BME280;23738;50.422;18.758;2022-08-19T12:21:14;97996.60;;;32.58;40.81
37904;BME280;23738;50.422;18.758;2022-08-19T12:23:41;97987.70;;;32.61;41.01
37904;BME280;23738;50.422;18.758;2022-08-19T12:26:09;97985.98;;;32.63;41.13
37904;BME280;23738;50.422;18.758;2022-08-19T12:28:37;97982.14;;;32.58;41.29
37904;BME280;23738;50.422;18.758;2022-08-19T12:31:05;97977.34;;;32.61;41.26
37904;BME280;23738;50.422;18.758;2022-08-19T12:33:31;97972.53;;;32.64;41.29
37904;BME280;23738;50.422;18.758;2022-08-19T12:36:05;97965.76;;;32.67;41.72
37904;BME280;23738;50.422;18.758;2022-08-19T12:38:33;97975.25;;;32.80;41.94
37904;BME280;23738;50.422;18.758;2022-08-19T12:41:01;97973.02;;;32.95;42.06
37904;BME280;23738;50.422;18.758;2022-08-19T12:43:29;97975.90;;;33.02;41.17
37904;BME280;23738;50.422;18.758;2022-08-19T12:45:56;97973.30;;;32.99;40.70
37904;BME280;23738;50.422;18.758;2022-08-19T12:48:22;97979.07;;;33.04;40.52
37904;BME280;23738;50.422;18.758;2022-08-19T12:50:48;97981.29;;;33.08;40.66
37904;BME280;23738;50.422;18.758;2022-08-19T12:53:14;97983.80;;;33.07;40.78
37904;BME280;23738;50.422;18.758;2022-08-19T12:55:41;97981.29;;;33.08;40.46
37904;BME280;23738;50.422;18.758;2022-08-19T12:58:08;97977.41;;;33.19;40.89
37904;BME280;23738;50.422;18.758;2022-08-19T13:00:34;97978.41;;;33.39;40.91
37904;BME280;23738;50.422;18.758;2022-08-19T13:03:00;97984.44;;;33.58;40.80
37904;BME280;23738;50.422;18.758;2022-08-19T13:05:29;97986.31;;;33.73;40.66
37904;BME280;23738;50.422;18.758;2022-08-19T13:07:57;97979.84;;;33.85;40.03
37904;BME280;23738;50.422;18.758;2022-08-19T13:10:31;97983.13;;;33.94;39.52